Time;durP1;ratioP1;P1;durP2;ratioP2;P2;SDS_P1;SDS_P2;PMS_P1;PMS_P2;Temp;Humidity;BMP_temperature;BMP_pressure;BME280_temperature;BME280_humidity;BME280_pressure;Samples;Min_cycle;Max_cycle;Signal;HPM_P1;HPM_P2
2024/01/11 00:00:04;;;;;;;;;;;;;;;4.44;76.64;102726.25;7293043;19;19915;-69
2024/01/11 00:02:31;;;;;;;;;;;;;;;4.40;74.80;102722.09;7290038;19;19977;-68
2024/01/11 00:05:02;;;;;;;;;;;;;;;4.36;75.09;102717.91;7313609;19;20381;-67
2024/01/11 00:07:31;;;;;;;;;;;;;;;4.30;75.14;102739.88;7300714;19;19930;-67
2024/01/11 00:09:58;;;;;;;;;;;;;;;4.32;76.00;102736.28;7294800;19;19971;-68
2024/01/11 00:12:24;;;;;;;;;;;;;;;4.26;75.99;102738.31;7299286;19;20858;-67
2024/01/11 00:14:56;;;;;;;;;;;;;;;4.23;75.27;102738.41;7295706;19;19927;-67
2024/01/11 00:17:25;;;;;;;;;;;;;;;4.21;75.76;102738.50;7291684;19;19918;-68
2024/01/11 00:19:52;;;;;;;;;;;;;;;4.17;76.43;102729.09;7304310;19;20552;-71
2024/01/11 00:22:19;;;;;;;;;;;;;;;4.20;76.61;102726.38;7290351;19;19915;-67
2024/01/11 00:24:46;;;;;;;;;;;;;;;4.20;76.81;102736.81;7290419;19;21700;-68
2024/01/11 00:27:25;;;;;;;;;;;;;;;4.22;77.00;102737.56;7284286;19;19918;-69
2024/01/11 00:29:52;;;;;;;;;;;;;;;4.24;76.73;102745.34;7299238;19;19998;-67
2024/01/11 00:32:21;;;;;;;;;;;;;;;4.21;76.36;102742.88;7296044;19;19930;-67
2024/01/11 00:34:48;;;;;;;;;;;;;;;4.20;77.23;102752.44;7291980;19;19923;-67
2024/01/11 00:37:15;;;;;;;;;;;;;;;4.21;77.85;102748.94;7289055;19;20331;-66
2024/01/11 00:39:43;;;;;;;;;;;;;;;4.22;78.32;102753.19;7290268;19;20012;-66
2024/01/11 00:42:10;;;;;;;;;;;;;;;4.24;77.63;102746.19;7300742;19;20284;-67
2024/01/11 00:44:37;;;;;;;;;;;;;;;4.21;76.77;102751.53;7309933;19;20197;-68
2024/01/11 00:47:04;;;;;;;;;;;;;;;4.19;76.71;102750.75;7303615;19;19922;-66
2024/01/11 00:49:31;;;;;;;;;;;;;;;4.18;78.03;102754.25;7284267;19;19951;-66
2024/01/11 00:51:57;;;;;;;;;;;;;;;4.15;78.01;102757.00;7299360;19;19922;-66
2024/01/11 00:54:24;;;;;;;;;;;;;;;4.12;78.84;102761.47;7300663;19;19923;-66
2024/01/11 00:56:51;;;;;;;;;;;;;;;4.13;79.33;102761.41;7298742;19;20644;-66
2024/01/11 00:59:18;;;;;;;;;;;;;;;4.16;78.69;102769.09;7289580;19;19922;-67
2024/01/11 01:01:49;;;;;;;;;;;;;;;4.11;78.01;102763.25;7279338;19;19941;-66
2024/01/11 01:04:16;;;;;;;;;;;;;;;4.11;78.87;102759.78;7277696;19;20177;-68
2024/01/11 01:06:43;;;;;;;;;;;;;;;4.11;79.08;102768.44;7289230;19;19919;-66
2024/01/11 01:09:10;;;;;;;;;;;;;;;4.09;78.49;102767.66;7292568;19;19970;-67
2024/01/11 01:11:37;;;;;;;;;;;;;;;4.00;78.21;102772.41;7297850;19;19930;-69
2024/01/11 01:14:04;;;;;;;;;;;;;;;3.93;78.38;102771.78;7288511;19;22316;-66
2024/01/11 01:16:31;;;;;;;;;;;;;;;3.90;78.61;102771.94;7292968;19;19923;-68
2024/01/11 01:18:58;;;;;;;;;;;;;;;3.86;79.15;102776.38;7283443;19;20010;-67
2024/01/11 01:21:25;;;;;;;;;;;;;;;3.91;80.52;102783.19;7279972;19;19927;-67
2024/01/11 01:23:52;;;;;;;;;;;;;;;3.87;79.43;102778.09;7285690;19;19930;-66
2024/01/11 01:26:20;;;;;;;;;;;;;;;3.90;79.97;102784.94;7291467;19;20352;-66
2024/01/11 01:28:46;;;;;;;;;;;;;;;3.96;80.90;102784.69;7292357;19;20556;-66
2024/01/11 01:31:14;;;;;;;;;;;;;;;3.96;80.34;102789.06;7301895;19;19930;-68
2024/01/11 01:33:41;;;;;;;;;;;;;;;3.94;79.50;102794.31;7288490;19;20180;-66
2024/01/11 01:36:09;;;;;;;;;;;;;;;3.94;80.56;102802.13;7303348;19;19945;-65
2024/01/11 01:38:36;;;;;;;;;;;;;;;3.95;80.59;102810.78;7302970;19;19915;-66
2024/01/11 01:41:03;;;;;;;;;;;;;;;3.96;79.87;102823.75;7282376;19;20673;-67
2024/01/11 01:43:30;;;;;;;;;;;;;;;3.87;79.24;102822.34;7288563;19;19932;-67
2024/01/11 01:46:02;;;;;;;;;;;;;;;3.82;79.42;102813.88;7301283;19;19922;-69
2024/01/11 01:48:29;;;;;;;;;;;;;;;3.80;80.22;102815.69;7292227;19;19918;-67
2024/01/11 01:50:56;;;;;;;;;;;;;;;3.82;80.68;102818.22;7294397;19;19927;-67
2024/01/11 01:53:24;;;;;;;;;;;;;;;3.85;81.32;102820.72;7293866;19;19919;-67
2024/01/11 01:55:52;;;;;;;;;;;;;;;3.81;81.24;102825.19;7292321;19;19919;-67
2024/01/11 01:58:20;;;;;;;;;;;;;;;3.86;81.50;102822.41;7298230;19;19999;-69
2024/01/11 02:00:48;;;;;;;;;;;;;;;3.86;81.13;102831.06;7299410;19;20034;-68
2024/01/11 02:03:16;;;;;;;;;;;;;;;3.87;81.35;102831.91;7287888;19;20091;-68
2024/01/11 02:05:43;;;;;;;;;;;;;;;3.88;81.11;102833.59;7282153;19;19934;-67
2024/01/11 02:08:15;;;;;;;;;;;;;;;3.88;81.29;102836.22;7285649;19;19923;-67
2024/01/11 02:10:42;;;;;;;;;;;;;;;3.85;80.71;102834.59;7299299;19;22546;-67
2024/01/11 02:13:10;;;;;;;;;;;;;;;3.88;80.86;102844.88;7299605;19;19933;-68
2024/01/11 02:15:37;;;;;;;;;;;;;;;3.80;80.40;102840.88;7299496;19;19915;-69
2024/01/11 02:18:04;;;;;;;;;;;;;;;3.80;81.34;102848.69;7280803;19;19919;-69
2024/01/11 02:20:31;;;;;;;;;;;;;;;3.75;81.28;102851.47;7284880;19;22616;-69
2024/01/11 02:23:01;;;;;;;;;;;;;;;3.76;81.89;102847.94;7281098;19;19963;-68
2024/01/11 02:25:28;;;;;;;;;;;;;;;3.79;80.75;102849.59;7286747;19;19926;-68
2024/01/11 02:27:54;;;;;;;;;;;;;;;3.72;80.84;102843.75;7292692;19;19982;-68
2024/01/11 02:30:22;;;;;;;;;;;;;;;3.73;81.64;102852.41;7292139;19;22313;-67
2024/01/11 02:32:49;;;;;;;;;;;;;;;3.73;82.53;102855.88;7293614;19;19914;-69
2024/01/11 02:35:18;;;;;;;;;;;;;;;3.76;82.73;102852.28;7296143;19;19930;-69
2024/01/11 02:37:46;;;;;;;;;;;;;;;3.74;82.80;102860.19;7292655;19;20513;-68
2024/01/11 02:40:16;;;;;;;;;;;;;;;3.74;82.37;102852.38;7294893;19;20018;-67
2024/01/11 02:42:43;;;;;;;;;;;;;;;3.76;83.02;102853.13;7294874;19;20290;-67
2024/01/11 02:45:10;;;;;;;;;;;;;;;3.73;83.00;102866.28;7291531;19;19929;-67
2024/01/11 02:47:37;;;;;;;;;;;;;;;3.69;82.68;102851.69;7298641;19;20310;-67
2024/01/11 02:50:07;;;;;;;;;;;;;;;3.72;83.80;102861.13;7291073;19;19945;-67
2024/01/11 02:52:34;;;;;;;;;;;;;;;3.70;82.61;102856.00;7282592;19;20511;-68
2024/01/11 02:55:04;;;;;;;;;;;;;;;3.70;83.26;102862.97;7297925;19;19955;-67
2024/01/11 02:57:31;;;;;;;;;;;;;;;3.71;83.83;102868.09;7289960;19;20935;-67
2024/01/11 02:59:58;;;;;;;;;;;;;;;3.68;83.47;102873.41;7283617;19;19918;-68
2024/01/11 03:02:25;;;;;;;;;;;;;;;3.63;82.26;102877.09;7297853;19;20002;-68
2024/01/11 03:04:52;;;;;;;;;;;;;;;3.64;82.88;102873.59;7299848;19;20822;-69
2024/01/11 03:07:19;;;;;;;;;;;;;;;3.60;82.62;102872.88;7311358;19;20800;-69
2024/01/11 03:09:46;;;;;;;;;;;;;;;3.54;82.60;102880.91;7310857;19;19919;-68
2024/01/11 03:12:12;;;;;;;;;;;;;;;3.52;82.04;102868.84;7301021;19;19919;-67
2024/01/11 03:14:39;;;;;;;;;;;;;;;3.49;82.99;102868.97;7284502;19;21674;-67
2024/01/11 03:17:06;;;;;;;;;;;;;;;3.47;83.41;102874.22;7277723;19;19922;-69
2024/01/11 03:19:33;;;;;;;;;;;;;;;3.42;82.47;102882.19;7288478;19;19929;-68
2024/01/11 03:22:04;;;;;;;;;;;;;;;3.39;83.12;102882.31;7281709;19;19919;-67
2024/01/11 03:24:31;;;;;;;;;;;;;;;3.34;83.40;102888.59;7299220;19;20263;-68
2024/01/11 03:26:58;;;;;;;;;;;;;;;3.36;83.20;102897.16;7294619;19;20046;-67
2024/01/11 03:29:25;;;;;;;;;;;;;;;3.36;84.00;102902.38;7283203;19;20636;-68
2024/01/11 03:31:52;;;;;;;;;;;;;;;3.31;83.24;102891.28;7293997;19;20010;-69
2024/01/11 03:34:18;;;;;;;;;;;;;;;3.20;83.70;102901.22;7317233;19;19921;-67
2024/01/11 03:36:45;;;;;;;;;;;;;;;3.18;83.98;102901.28;7298592;19;20950;-68
2024/01/11 03:39:12;;;;;;;;;;;;;;;3.14;84.34;102902.28;7295692;19;19966;-67
2024/01/11 03:41:48;;;;;;;;;;;;;;;3.14;84.24;102906.66;7298495;19;19921;-67
2024/01/11 03:44:15;;;;;;;;;;;;;;;3.13;84.46;102903.19;7288212;19;19915;-67
2024/01/11 03:46:42;;;;;;;;;;;;;;;3.17;85.07;102912.56;7291709;19;19914;-68
2024/01/11 03:49:09;;;;;;;;;;;;;;;3.24;85.36;102905.41;7291736;19;19978;-67
2024/01/11 03:51:36;;;;;;;;;;;;;;;3.25;85.28;102909.72;7289726;19;19949;-68
2024/01/11 03:54:03;;;;;;;;;;;;;;;3.23;85.22;102906.31;7309458;19;19922;-67
2024/01/11 03:56:30;;;;;;;;;;;;;;;3.29;85.50;102913.91;7289918;19;20565;-68
2024/01/11 03:58:57;;;;;;;;;;;;;;;3.32;85.49;102908.59;7280572;19;20526;-67
2024/01/11 04:01:24;;;;;;;;;;;;;;;3.28;85.24;102918.25;7270831;19;19930;-68
2024/01/11 04:03:51;;;;;;;;;;;;;;;3.36;85.77;102917.97;7292753;19;19918;-69
2024/01/11 04:06:22;;;;;;;;;;;;;;;3.38;84.78;102918.78;7281546;19;19929;-69
2024/01/11 04:08:50;;;;;;;;;;;;;;;3.41;84.99;102926.47;7289066;19;19919;-67
2024/01/11 04:11:17;;;;;;;;;;;;;;;3.37;84.59;102910.13;7294582;19;19938;-68
2024/01/11 04:13:50;;;;;;;;;;;;;;;3.35;84.86;102914.50;7286283;19;19922;-69
2024/01/11 04:16:17;;;;;;;;;;;;;;;3.37;85.38;102923.13;7310226;19;22342;-67
2024/01/11 04:18:44;;;;;;;;;;;;;;;3.35;84.83;102921.50;7296954;19;20870;-67
2024/01/11 04:21:24;;;;;;;;;;;;;;;3.33;84.21;102925.91;7299194;19;19914;-67
2024/01/11 04:23:51;;;;;;;;;;;;;;;3.34;85.66;102923.25;7288488;19;19948;-68
2024/01/11 04:26:18;;;;;;;;;;;;;;;3.33;85.66;102933.69;7307087;19;20448;-67
2024/01/11 04:28:46;;;;;;;;;;;;;;;3.38;86.12;102940.44;7290663;19;19919;-68
2024/01/11 04:31:13;;;;;;;;;;;;;;;3.42;86.78;102943.78;7287834;19;20216;-69
2024/01/11 04:33:46;;;;;;;;;;;;;;;3.40;86.32;102945.59;7287784;19;19919;-68
2024/01/11 04:36:13;;;;;;;;;;;;;;;3.45;86.50;102938.47;7287857;19;19915;-69
2024/01/11 04:38:40;;;;;;;;;;;;;;;3.47;86.10;102938.41;7296347;19;19923;-67
2024/01/11 04:41:08;;;;;;;;;;;;;;;3.49;85.61;102952.22;7288473;19;19930;-67
2024/01/11 04:43:40;;;;;;;;;;;;;;;3.46;85.29;102953.16;7286306;19;20017;-66
2024/01/11 04:46:20;;;;;;;;;;;;;;;3.47;84.32;102954.88;7296497;19;19927;-68
2024/01/11 04:48:48;;;;;;;;;;;;;;;3.48;85.12;102956.56;7280198;19;20858;-67
2024/01/11 04:51:17;;;;;;;;;;;;;;;3.43;84.65;102955.88;7276246;19;19915;-67
2024/01/11 04:53:44;;;;;;;;;;;;;;;3.45;85.10;102961.91;7279265;19;19914;-67
2024/01/11 04:56:13;;;;;;;;;;;;;;;3.49;86.15;102960.88;7293600;19;19919;-68
2024/01/11 04:58:42;;;;;;;;;;;;;;;3.50;86.23;102959.13;7273043;19;21279;-67
2024/01/11 05:01:16;;;;;;;;;;;;;;;3.51;85.95;102966.00;7284721;19;19927;-67
2024/01/11 05:03:44;;;;;;;;;;;;;;;3.47;85.01;102962.66;7278607;19;19951;-67
2024/01/11 05:06:18;;;;;;;;;;;;;;;3.44;84.51;102961.03;7277613;19;19919;-68
2024/01/11 05:08:54;;;;;;;;;;;;;;;3.42;84.98;102969.78;7300260;19;19919;-68
2024/01/11 05:11:23;;;;;;;;;;;;;;;3.40;85.03;102975.03;7278366;19;20261;-69
2024/01/11 05:13:51;;;;;;;;;;;;;;;3.38;84.86;102969.06;7277992;19;21641;-68
2024/01/11 05:16:22;;;;;;;;;;;;;;;3.35;85.35;102973.53;7294098;19;21265;-69
2024/01/11 05:18:50;;;;;;;;;;;;;;;3.36;85.73;102976.06;7291049;19;19918;-69
2024/01/11 05:21:17;;;;;;;;;;;;;;;3.35;86.10;102976.13;7294054;19;20573;-68
2024/01/11 05:23:44;;;;;;;;;;;;;;;3.36;85.92;102978.66;7292351;19;19926;-67
2024/01/11 05:26:13;;;;;;;;;;;;;;;3.28;85.14;102982.44;7296402;19;19923;-67
2024/01/11 05:28:40;;;;;;;;;;;;;;;3.28;85.46;102983.28;7288626;19;19914;-67
2024/01/11 05:31:07;;;;;;;;;;;;;;;3.27;86.30;102986.78;7311791;19;19998;-67
2024/01/11 05:33:34;;;;;;;;;;;;;;;3.27;86.19;102997.19;7292571;19;19986;-68
2024/01/11 05:36:02;;;;;;;;;;;;;;;3.27;86.39;102996.31;7287019;19;19914;-68
2024/01/11 05:38:29;;;;;;;;;;;;;;;3.29;86.22;102997.13;7281856;19;21213;-68
2024/01/11 05:40:56;;;;;;;;;;;;;;;3.26;86.08;102998.06;7301293;19;19951;-67
2024/01/11 05:43:23;;;;;;;;;;;;;;;3.26;85.97;103005.88;7293753;19;20361;-67
2024/01/11 05:45:50;;;;;;;;;;;;;;;3.23;86.34;103008.59;7285430;19;22333;-68
2024/01/11 05:48:18;;;;;;;;;;;;;;;3.22;86.40;103012.09;7282823;19;20005;-68
2024/01/11 05:50:45;;;;;;;;;;;;;;;3.21;86.50;103014.72;7290060;19;20002;-68
2024/01/11 05:53:12;;;;;;;;;;;;;;;3.25;86.38;103011.16;7287212;19;20274;-68
2024/01/11 05:55:39;;;;;;;;;;;;;;;3.17;86.21;103008.78;7292365;19;21138;-68
2024/01/11 05:58:06;;;;;;;;;;;;;;;3.21;87.25;103006.94;7287739;19;20255;-68
2024/01/11 06:00:33;;;;;;;;;;;;;;;3.24;88.02;103012.91;7289617;19;20703;-68
2024/01/11 06:03:01;;;;;;;;;;;;;;;3.23;87.42;103016.41;7298584;19;20316;-68
2024/01/11 06:05:27;;;;;;;;;;;;;;;3.24;87.26;103020.72;7281358;19;20147;-68
2024/01/11 06:07:54;;;;;;;;;;;;;;;3.29;88.18;103013.59;7286961;19;19919;-69
2024/01/11 06:10:21;;;;;;;;;;;;;;;3.34;87.34;103027.28;7292246;19;19926;-69
2024/01/11 06:12:48;;;;;;;;;;;;;;;3.34;87.73;103027.28;7289113;19;19955;-67
2024/01/11 06:15:15;;;;;;;;;;;;;;;3.37;86.72;103034.13;7300350;19;22228;-67
2024/01/11 06:17:42;;;;;;;;;;;;;;;3.35;86.59;103034.19;7309632;19;19919;-67
2024/01/11 06:20:10;;;;;;;;;;;;;;;3.38;86.62;103034.09;7299674;19;20374;-69
2024/01/11 06:22:37;;;;;;;;;;;;;;;3.37;85.87;103037.59;7293849;19;19919;-68
2024/01/11 06:25:05;;;;;;;;;;;;;;;3.38;85.67;103039.28;7301284;19;19926;-70
2024/01/11 06:27:32;;;;;;;;;;;;;;;3.33;85.60;103049.00;7292525;19;20319;-71
2024/01/11 06:29:59;;;;;;;;;;;;;;;3.30;85.96;103053.47;7295247;19;19929;-67
2024/01/11 06:32:25;;;;;;;;;;;;;;;3.29;86.16;103046.56;7287915;19;19975;-68
2024/01/11 06:34:52;;;;;;;;;;;;;;;3.33;86.52;103049.00;7286571;19;19923;-67
2024/01/11 06:37:19;;;;;;;;;;;;;;;3.32;85.80;103044.69;7293827;19;20329;-67
2024/01/11 06:39:46;;;;;;;;;;;;;;;3.32;85.98;103049.03;7309652;19;19918;-68
2024/01/11 06:42:14;;;;;;;;;;;;;;;3.31;85.60;103048.19;7292191;19;19929;-69
2024/01/11 06:44:41;;;;;;;;;;;;;;;3.33;85.78;103055.94;7294168;19;19952;-67
2024/01/11 06:47:08;;;;;;;;;;;;;;;3.33;86.06;103062.00;7304163;19;19925;-68
2024/01/11 06:49:38;;;;;;;;;;;;;;;3.28;85.33;103058.72;7294651;19;19918;-68
2024/01/11 06:52:05;;;;;;;;;;;;;;;3.23;85.63;103064.97;7292465;19;19959;-68
2024/01/11 06:54:32;;;;;;;;;;;;;;;3.22;85.83;103069.31;7299118;19;19931;-67
2024/01/11 06:56:59;;;;;;;;;;;;;;;3.20;85.22;103067.66;7300429;19;19914;-68
2024/01/11 06:59:26;;;;;;;;;;;;;;;3.22;85.26;103065.84;7287376;19;19911;-68
2024/01/11 07:01:53;;;;;;;;;;;;;;;3.21;85.32;103067.59;7297692;19;20015;-68
2024/01/11 07:04:20;;;;;;;;;;;;;;;3.30;85.13;103072.50;7289672;19;20018;-67
2024/01/11 07:06:47;;;;;;;;;;;;;;;3.32;84.76;103070.72;7294914;19;20769;-66
2024/01/11 07:09:14;;;;;;;;;;;;;;;3.33;84.27;103076.75;7287347;19;19937;-66
2024/01/11 07:11:41;;;;;;;;;;;;;;;3.40;84.72;103075.66;7293187;19;19919;-67
2024/01/11 07:14:08;;;;;;;;;;;;;;;3.49;85.63;103084.91;7290331;19;21231;-67
2024/01/11 07:16:35;;;;;;;;;;;;;;;3.53;85.93;103089.97;7297358;19;21085;-69
2024/01/11 07:19:02;;;;;;;;;;;;;;;3.56;83.41;103097.66;7297157;19;19925;-69
2024/01/11 07:21:29;;;;;;;;;;;;;;;3.55;83.63;103092.53;7299437;19;19955;-68
2024/01/11 07:23:57;;;;;;;;;;;;;;;3.57;83.03;103094.16;7301029;19;19922;-67
2024/01/11 07:26:24;;;;;;;;;;;;;;;3.59;82.48;103094.09;7300127;19;20130;-68
2024/01/11 07:28:54;;;;;;;;;;;;;;;3.59;82.31;103099.31;7304186;19;20501;-69
2024/01/11 07:31:22;;;;;;;;;;;;;;;3.62;82.64;103100.06;7295871;19;19915;-68
2024/01/11 07:33:48;;;;;;;;;;;;;;;3.64;82.64;103100.88;7287489;19;20005;-69
2024/01/11 07:36:16;;;;;;;;;;;;;;;3.69;81.65;103105.91;7293231;19;19919;-67
2024/01/11 07:38:43;;;;;;;;;;;;;;;3.69;81.32;103111.13;7287613;19;19938;-68
2024/01/11 07:41:10;;;;;;;;;;;;;;;3.71;81.34;103106.69;7281251;19;19938;-67
2024/01/11 07:43:37;;;;;;;;;;;;;;;3.72;82.43;103098.84;7275642;19;19929;-70
2024/01/11 07:46:19;;;;;;;;;;;;;;;3.71;82.12;103107.53;7285690;19;20046;-68
2024/01/11 07:48:58;;;;;;;;;;;;;;;3.74;81.88;103101.41;7313466;19;19939;-69
2024/01/11 07:51:26;;;;;;;;;;;;;;;3.69;82.13;103109.38;7304886;19;19918;-69
2024/01/11 07:53:53;;;;;;;;;;;;;;;3.72;82.65;103108.41;7309442;19;20522;-67
2024/01/11 07:56:20;;;;;;;;;;;;;;;3.74;83.18;103119.63;7293864;19;21851;-67
2024/01/11 07:58:48;;;;;;;;;;;;;;;3.75;83.18;103129.13;7296571;19;19923;-66
2024/01/11 08:01:18;;;;;;;;;;;;;;;3.69;83.66;103124.97;7288573;19;19919;-68
2024/01/11 08:03:45;;;;;;;;;;;;;;;3.71;84.72;103130.13;7288512;19;19991;-69
2024/01/11 08:06:12;;;;;;;;;;;;;;;3.64;85.29;103128.63;7294115;19;19919;-69
2024/01/11 08:08:39;;;;;;;;;;;;;;;3.65;86.35;103140.75;7295638;19;19915;-67
2024/01/11 08:11:07;;;;;;;;;;;;;;;3.68;87.19;103130.22;7303949;19;21073;-67
2024/01/11 08:13:34;;;;;;;;;;;;;;;3.70;87.47;103131.03;7296160;19;19915;-67
2024/01/11 08:16:04;;;;;;;;;;;;;;;3.73;87.85;103142.19;7306797;19;20579;-68
2024/01/11 08:18:35;;;;;;;;;;;;;;;3.77;88.75;103141.19;7296822;19;19933;-68
2024/01/11 08:21:09;;;;;;;;;;;;;;;3.82;88.54;103138.41;7293420;19;19915;-67
2024/01/11 08:23:39;;;;;;;;;;;;;;;3.80;88.83;103142.84;7281958;19;19942;-68
2024/01/11 08:26:06;;;;;;;;;;;;;;;3.70;89.02;103141.47;7307359;19;21272;-68
2024/01/11 08:28:37;;;;;;;;;;;;;;;3.75;89.34;103143.00;7297155;19;19921;-69
2024/01/11 08:31:04;;;;;;;;;;;;;;;3.81;89.97;103147.97;7286433;19;19914;-69
2024/01/11 08:33:31;;;;;;;;;;;;;;;3.85;89.91;103160.00;7310630;19;19922;-68
2024/01/11 08:35:58;;;;;;;;;;;;;;;3.86;89.62;103160.84;7300253;19;21218;-68
2024/01/11 08:38:25;;;;;;;;;;;;;;;3.84;89.71;103166.13;7297538;19;20209;-68
2024/01/11 08:40:53;;;;;;;;;;;;;;;3.84;90.32;103163.50;7298972;19;19926;-67
2024/01/11 08:43:20;;;;;;;;;;;;;;;3.90;90.68;103177.22;7291187;19;19971;-69
2024/01/11 08:45:46;;;;;;;;;;;;;;;3.95;91.08;103183.13;7291251;19;20014;-67
2024/01/11 08:48:13;;;;;;;;;;;;;;;4.01;90.57;103191.59;7279936;19;19936;-68
2024/01/11 08:50:41;;;;;;;;;;;;;;;4.01;90.82;103194.19;7285044;19;20370;-69
2024/01/11 08:53:07;;;;;;;;;;;;;;;4.08;92.01;103197.44;7298938;19;21606;-67
2024/01/11 08:55:34;;;;;;;;;;;;;;;4.10;91.21;103195.63;7289973;19;19925;-67
2024/01/11 08:58:01;;;;;;;;;;;;;;;4.19;91.76;103200.53;7286885;19;19922;-67
2024/01/11 09:00:34;;;;;;;;;;;;;;;4.44;96.84;103196.16;7282986;19;19914;-66
2024/01/11 09:03:01;;;;;;;;;;;;;;;4.59;97.91;103200.81;7293659;19;21012;-69
2024/01/11 09:05:28;;;;;;;;;;;;;;;4.54;93.89;103201.88;7306082;19;21036;-67
2024/01/11 09:07:56;;;;;;;;;;;;;;;4.47;90.06;103206.47;7314364;19;20764;-66
2024/01/11 09:10:23;;;;;;;;;;;;;;;4.42;90.25;103215.38;7294147;19;19930;-67
2024/01/11 09:12:54;;;;;;;;;;;;;;;4.35;89.72;103219.09;7284617;19;20892;-68
2024/01/11 09:15:23;;;;;;;;;;;;;;;4.35;90.44;103224.28;7304499;19;19923;-68
2024/01/11 09:17:50;;;;;;;;;;;;;;;4.35;89.87;103219.09;7296687;19;19933;-67
2024/01/11 09:20:18;;;;;;;;;;;;;;;4.35;89.91;103226.91;7293880;19;19915;-68
2024/01/11 09:22:46;;;;;;;;;;;;;;;4.32;89.90;103220.03;7297550;19;19927;-67
2024/01/11 09:25:14;;;;;;;;;;;;;;;4.30;90.23;103227.91;7293974;19;19994;-68
2024/01/11 09:27:41;;;;;;;;;;;;;;;4.36;90.64;103218.19;7301303;19;19941;-66
2024/01/11 09:30:10;;;;;;;;;;;;;;;4.28;89.55;103216.69;7297541;19;19929;-67
2024/01/11 09:32:43;;;;;;;;;;;;;;;4.32;89.93;103210.47;7292507;19;20214;-67
2024/01/11 09:35:10;;;;;;;;;;;;;;;4.36;90.22;103226.00;7300656;19;19954;-69
2024/01/11 09:37:42;;;;;;;;;;;;;;;4.43;90.18;103225.72;7281485;19;22685;-68
2024/01/11 09:40:14;;;;;;;;;;;;;;;4.48;89.82;103218.59;7292853;19;20969;-67
2024/01/11 09:42:46;;;;;;;;;;;;;;;4.50;90.02;103226.38;7285181;19;21208;-70
2024/01/11 09:45:15;;;;;;;;;;;;;;;4.55;90.21;103222.69;7278911;19;20523;-67
2024/01/11 09:47:50;;;;;;;;;;;;;;;4.61;90.25;103238.13;7293804;19;19926;-68
2024/01/11 09:50:19;;;;;;;;;;;;;;;4.66;90.00;103233.59;7304002;19;19923;-67
2024/01/11 09:52:48;;;;;;;;;;;;;;;4.76;89.57;103247.16;7300734;19;20466;-68
2024/01/11 09:55:18;;;;;;;;;;;;;;;4.84;88.75;103242.50;7315042;19;19917;-68
2024/01/11 09:57:49;;;;;;;;;;;;;;;4.86;89.00;103243.31;7306910;19;19927;-66
2024/01/11 10:00:18;;;;;;;;;;;;;;;4.95;88.95;103245.56;7297304;19;19926;-67
2024/01/11 10:02:46;;;;;;;;;;;;;;;4.93;88.37;103242.16;7290171;19;21990;-67
2024/01/11 10:05:16;;;;;;;;;;;;;;;5.03;88.94;103251.34;7312289;19;20164;-70
2024/01/11 10:07:45;;;;;;;;;;;;;;;5.10;88.04;103250.22;7298562;19;19923;-68
2024/01/11 10:10:15;;;;;;;;;;;;;;;5.15;87.42;103257.88;7315142;19;19955;-68
2024/01/11 10:12:43;;;;;;;;;;;;;;;5.23;88.14;103261.06;7297812;19;20022;-67
2024/01/11 10:15:13;;;;;;;;;;;;;;;5.24;88.02;103252.28;7305996;19;19930;-68
2024/01/11 10:17:46;;;;;;;;;;;;;;;5.31;87.59;103259.00;7298243;19;19927;-68
2024/01/11 10:20:14;;;;;;;;;;;;;;;5.35;87.69;103257.09;7297784;19;20820;-67
2024/01/11 10:22:42;;;;;;;;;;;;;;;5.40;87.37;103260.38;7301845;19;20717;-67
2024/01/11 10:25:12;;;;;;;;;;;;;;;5.42;86.44;103259.44;7308985;19;20010;-67
2024/01/11 10:27:43;;;;;;;;;;;;;;;5.48;87.18;103264.44;7314413;19;19914;-69
2024/01/11 10:30:15;;;;;;;;;;;;;;;5.53;86.45;103266.84;7302837;19;20341;-68
2024/01/11 10:32:46;;;;;;;;;;;;;;;5.54;86.22;103268.53;7294383;19;20957;-68
2024/01/11 10:35:14;;;;;;;;;;;;;;;5.56;86.31;103267.56;7309679;19;19923;-68
2024/01/11 10:37:42;;;;;;;;;;;;;;;5.63;86.09;103262.97;7285408;19;20006;-69
2024/01/11 10:40:12;;;;;;;;;;;;;;;5.66;85.77;103270.69;7288418;19;19919;-67
2024/01/11 10:42:43;;;;;;;;;;;;;;;5.66;85.06;103283.72;7291929;19;20002;-68
2024/01/11 10:45:14;;;;;;;;;;;;;;;5.69;84.70;103280.16;7303577;19;19929;-66
2024/01/11 10:47:54;;;;;;;;;;;;;;;5.68;84.40;103287.16;7301067;19;19922;-67
2024/01/11 10:50:22;;;;;;;;;;;;;;;5.75;84.53;103285.13;7291575;19;19927;-67
2024/01/11 10:52:51;;;;;;;;;;;;;;;5.76;84.45;103299.88;7310038;19;19954;-69
2024/01/11 10:55:19;;;;;;;;;;;;;;;5.88;84.33;103286.38;7284979;19;19919;-68
2024/01/11 10:57:48;;;;;;;;;;;;;;;5.98;84.18;103296.41;7302767;19;20316;-67
2024/01/11 11:00:16;;;;;;;;;;;;;;;6.13;83.44;103302.78;7299083;19;19929;-67
2024/01/11 11:02:44;;;;;;;;;;;;;;;6.21;82.79;103307.66;7300779;19;19925;-68
2024/01/11 11:05:12;;;;;;;;;;;;;;;6.28;81.86;103307.38;7298088;19;20882;-67
2024/01/11 11:07:39;;;;;;;;;;;;;;;6.30;82.09;103312.50;7302196;19;19919;-65
2024/01/11 11:10:08;;;;;;;;;;;;;;;6.36;81.16;103314.88;7284956;19;19994;-67
2024/01/11 11:12:40;;;;;;;;;;;;;;;6.41;81.04;103319.00;7281197;19;19950;-67
2024/01/11 11:15:12;;;;;;;;;;;;;;;6.42;80.95;103331.16;7300298;19;19930;-67
2024/01/11 11:17:39;;;;;;;;;;;;;;;6.33;80.96;103323.72;7300079;19;19930;-68
2024/01/11 11:20:13;;;;;;;;;;;;;;;6.33;81.24;103331.56;7302486;19;20584;-67
2024/01/11 11:22:40;;;;;;;;;;;;;;;6.45;81.16;103328.41;7300097;19;19923;-67
2024/01/11 11:25:10;;;;;;;;;;;;;;;6.39;81.11;103327.84;7299280;19;19939;-67
2024/01/11 11:27:37;;;;;;;;;;;;;;;6.38;80.32;103334.84;7304750;19;19922;-68
2024/01/11 11:30:05;;;;;;;;;;;;;;;6.39;80.93;103320.84;7312470;19;20353;-67
2024/01/11 11:32:42;;;;;;;;;;;;;;;6.44;81.60;103328.50;7305438;19;19919;-67
2024/01/11 11:35:10;;;;;;;;;;;;;;;6.53;81.31;103327.25;7312279;19;19925;-67
2024/01/11 11:37:37;;;;;;;;;;;;;;;6.57;79.94;103328.81;7288228;19;21317;-67
2024/01/11 11:40:10;;;;;;;;;;;;;;;6.57;79.43;103332.28;7284754;19;19990;-67
2024/01/11 11:42:38;;;;;;;;;;;;;;;6.38;78.27;103327.00;7299965;19;19919;-67
2024/01/11 11:45:10;;;;;;;;;;;;;;;6.36;78.82;103323.56;7302116;19;20892;-67
2024/01/11 11:47:38;;;;;;;;;;;;;;;6.44;79.27;103328.50;7298157;19;20482;-68
2024/01/11 11:50:13;;;;;;;;;;;;;;;6.44;79.33;103331.97;7281465;19;19931;-68
2024/01/11 11:52:43;;;;;;;;;;;;;;;6.53;78.86;103340.34;7295597;19;19952;-68
2024/01/11 11:55:11;;;;;;;;;;;;;;;6.56;76.92;103335.81;7292213;19;19968;-67
2024/01/11 11:57:38;;;;;;;;;;;;;;;6.53;77.25;103343.81;7295123;19;19919;-67
2024/01/11 12:00:06;;;;;;;;;;;;;;;6.43;76.81;103347.72;7296201;19;19918;-67
2024/01/11 12:02:35;;;;;;;;;;;;;;;6.45;78.07;103341.50;7307144;19;20362;-68
2024/01/11 12:05:03;;;;;;;;;;;;;;;6.42;77.00;103354.69;7300358;19;20734;-68
2024/01/11 12:07:31;;;;;;;;;;;;;;;6.29;77.20;103356.13;7288501;19;19921;-69
2024/01/11 12:09:58;;;;;;;;;;;;;;;6.16;77.58;103367.97;7290537;19;19923;-68
2024/01/11 12:12:25;;;;;;;;;;;;;;;6.04;77.79;103359.78;7282138;19;20582;-68
2024/01/11 12:14:53;;;;;;;;;;;;;;;6.00;77.87;103353.81;7295248;19;19919;-68
2024/01/11 12:17:20;;;;;;;;;;;;;;;6.02;78.19;103352.00;7290050;19;19919;-68
2024/01/11 12:19:48;;;;;;;;;;;;;;;6.06;78.49;103350.97;7294280;19;19922;-67
2024/01/11 12:22:15;;;;;;;;;;;;;;;6.07;78.19;103346.59;7309526;19;19929;-67
2024/01/11 12:24:42;;;;;;;;;;;;;;;6.12;78.89;103350.72;7296096;19;19951;-67
2024/01/11 12:27:09;;;;;;;;;;;;;;;6.13;77.43;103348.97;7302619;19;20430;-68
2024/01/11 12:29:39;;;;;;;;;;;;;;;6.16;77.30;103351.44;7306883;19;19923;-69
2024/01/11 12:32:21;;;;;;;;;;;;;;;6.17;77.09;103355.75;7293336;19;21253;-66
2024/01/11 12:34:47;;;;;;;;;;;;;;;6.16;77.52;103348.81;7301774;19;19925;-67
2024/01/11 12:37:15;;;;;;;;;;;;;;;6.18;77.13;103353.09;7286515;19;20276;-67
2024/01/11 12:39:42;;;;;;;;;;;;;;;6.15;78.00;103342.75;7291514;19;19933;-68
2024/01/11 12:42:09;;;;;;;;;;;;;;;6.08;77.62;103348.28;7309562;19;20757;-67
2024/01/11 12:44:37;;;;;;;;;;;;;;;6.03;78.21;103358.94;7291383;19;21548;-68
2024/01/11 12:47:05;;;;;;;;;;;;;;;6.05;78.42;103353.63;7291908;19;19995;-67
2024/01/11 12:49:32;;;;;;;;;;;;;;;6.13;78.96;103343.72;7298959;19;20256;-68
2024/01/11 12:51:59;;;;;;;;;;;;;;;6.20;79.72;103342.56;7292807;19;20205;-68